Time;durP1;ratioP1;P1;durP2;ratioP2;P2;SDS_P1;SDS_P2;PMS_P1;PMS_P2;Temp;Humidity;BMP_temperature;BMP_pressure;BME280_temperature;BME280_humidity;BME280_pressure;Samples;Min_cycle;Max_cycle;Signal;HPM_P1;HPM_P2
2022/09/03 00:00:53;;;;;;;1.50;1.40;;;20.70;46.80;;;;;;5030928;28;20458;-81
2022/09/03 00:03:33;;;;;;;1.60;1.50;;;20.80;47.30;;;;;;5026653;28;20470;-81
2022/09/03 00:06:19;;;;;;;1.93;1.40;;;20.70;47.30;;;;;;5010162;28;20450;-82
2022/09/03 00:09:04;;;;;;;4.17;1.80;;;20.80;47.40;;;;;;5009587;28;20466;-81
2022/09/03 00:12:11;;;;;;;2.33;1.60;;;20.90;47.30;;;;;;5013077;28;21233;-82
2022/09/03 00:14:49;;;;;;;1.53;1.43;;;20.80;47.30;;;;;;5010721;28;20453;-83
2022/09/03 00:17:23;;;;;;;1.67;1.57;;;20.70;47.60;;;;;;5011084;28;20469;-81
2022/09/03 00:19:58;;;;;;;1.70;1.50;;;20.80;47.40;;;;;;5010852;28;20477;-82
2022/09/03 00:22:39;;;;;;;2.53;1.83;;;20.70;47.60;;;;;;5011216;28;20446;-83
2022/09/03 00:25:13;;;;;;;2.13;1.43;;;20.70;47.70;;;;;;5010447;28;21458;-82
2022/09/03 00:27:42;;;;;;;1.97;1.77;;;20.80;48.00;;;;;;5010797;28;20481;-82
2022/09/03 00:30:12;;;;;;;1.83;1.40;;;20.70;47.80;;;;;;5012089;28;20451;-82
2022/09/03 00:33:12;;;;;;;1.57;1.43;;;20.80;48.00;;;;;;5012780;28;20482;-82
2022/09/03 00:36:01;;;;;;;2.17;1.77;;;20.70;48.30;;;;;;5012978;28;20454;-82
2022/09/03 00:38:30;;;;;;;2.10;1.90;;;20.60;48.50;;;;;;5015790;28;20462;-82
2022/09/03 00:41:33;;;;;;;2.93;1.60;;;20.70;48.70;;;;;;5014216;28;20446;-83
2022/09/03 00:44:20;;;;;;;1.80;1.70;;;20.60;48.60;;;;;;5024614;28;20948;-82
2022/09/03 00:46:55;;;;;;;1.53;1.40;;;20.50;49.00;;;;;;5010293;28;20455;-83
2022/09/03 00:49:34;;;;;;;3.00;1.70;;;20.60;49.20;;;;;;5019138;28;20448;-81
2022/09/03 00:52:24;;;;;;;2.23;1.80;;;20.50;49.20;;;;;;5020480;28;20468;-81
2022/09/03 00:55:22;;;;;;;2.10;1.30;;;20.50;49.30;;;;;;5038153;28;20442;-82
2022/09/03 00:58:30;;;;;;;2.17;1.67;;;20.50;49.50;;;;;;5035852;28;20462;-82
2022/09/03 01:00:57;;;;;;;3.50;1.97;;;20.30;49.60;;;;;;5027213;28;20446;-81
2022/09/03 01:03:53;;;;;;;2.40;1.50;;;20.20;50.00;;;;;;5027086;28;20476;-81
2022/09/03 01:06:48;;;;;;;1.50;1.40;;;20.30;49.80;;;;;;5026553;28;20454;-83
2022/09/03 01:09:35;;;;;;;2.20;1.80;;;20.40;49.60;;;;;;5025806;28;20446;-81
2022/09/03 01:12:39;;;;;;;1.47;1.37;;;20.30;50.00;;;;;;5022514;28;20466;-83
2022/09/03 01:15:46;;;;;;;1.70;1.60;;;20.50;49.70;;;;;;5018804;28;20477;-85
2022/09/03 01:18:29;;;;;;;1.50;1.40;;;20.40;50.00;;;;;;5017406;28;20486;-81
2022/09/03 01:21:45;;;;;;;1.83;1.73;;;20.30;50.30;;;;;;5015148;28;20450;-81
2022/09/03 01:24:28;;;;;;;1.80;1.40;;;20.30;50.70;;;;;;5013022;28;20489;-83
2022/09/03 01:26:58;;;;;;;1.77;1.67;;;20.20;50.80;;;;;;5015344;28;20450;-83
2022/09/03 01:30:02;;;;;;;2.10;1.70;;;20.10;50.90;;;;;;5015867;28;20466;-82
2022/09/03 01:33:03;;;;;;;2.37;1.70;;;20.00;51.10;;;;;;5015837;28;20525;-83
2022/09/03 01:35:50;;;;;;;1.73;1.50;;;20.10;51.10;;;;;;5018404;28;20452;-82
2022/09/03 01:38:28;;;;;;;1.63;1.53;;;20.10;51.40;;;;;;5015435;28;20470;-83
2022/09/03 01:42:14;;;;;;;1.93;1.80;;;20.10;51.30;;;;;;5030925;28;20445;-81
2022/09/03 01:44:13;;;;;;;3.97;1.50;;;20.10;51.30;;;;;;5017439;28;20464;-83
2022/09/03 01:46:44;;;;;;;1.80;1.30;;;20.10;51.40;;;;;;5016238;28;20457;-83
2022/09/03 01:49:27;;;;;;;2.43;1.70;;;20.20;51.40;;;;;;5015799;28;20911;-84
2022/09/03 01:52:25;;;;;;;3.53;2.00;;;20.00;51.90;;;;;;5019054;28;20462;-83
2022/09/03 01:55:11;;;;;;;1.70;1.60;;;20.00;52.30;;;;;;5026061;28;20474;-82
2022/09/03 01:58:13;;;;;;;2.10;2.00;;;19.90;52.70;;;;;;5014912;28;20485;-83
2022/09/03 02:00:45;;;;;;;2.00;1.90;;;19.70;53.20;;;;;;4996996;28;20538;-83
2022/09/03 02:03:13;;;;;;;1.80;1.70;;;19.80;53.80;;;;;;5012878;28;20474;-82
2022/09/03 02:05:42;;;;;;;2.57;1.80;;;19.80;53.90;;;;;;5012456;28;20530;-84
2022/09/03 02:08:09;;;;;;;2.10;1.40;;;19.70;54.10;;;;;;5013280;28;20470;-84
2022/09/03 02:10:45;;;;;;;1.70;1.60;;;19.90;53.60;;;;;;5013482;28;20481;-82
2022/09/03 02:13:25;;;;;;;2.20;2.00;;;19.90;53.40;;;;;;5012791;28;20489;-81
2022/09/03 02:15:56;;;;;;;3.50;1.70;;;19.80;53.70;;;;;;5013518;28;20503;-83
2022/09/03 02:18:35;;;;;;;3.00;1.70;;;19.90;53.70;;;;;;5011498;28;20501;-82
2022/09/03 02:21:04;;;;;;;3.30;1.80;;;19.80;53.80;;;;;;5009564;28;20574;-82
2022/09/03 02:23:30;;;;;;;2.33;1.53;;;19.80;53.90;;;;;;5026392;28;20513;-81
2022/09/03 02:26:01;;;;;;;1.80;1.70;;;19.90;53.70;;;;;;5013418;28;20458;-84
2022/09/03 02:28:31;;;;;;;2.90;1.80;;;19.70;53.60;;;;;;5013056;28;21132;-84
2022/09/03 02:30:57;;;;;;;2.20;1.50;;;19.70;53.70;;;;;;5009544;28;21000;-82
2022/09/03 02:33:24;;;;;;;1.90;1.57;;;19.60;53.90;;;;;;4997540;28;20486;-82
2022/09/03 02:35:52;;;;;;;2.17;1.80;;;19.60;53.70;;;;;;5017887;28;20450;-82
2022/09/03 02:38:24;;;;;;;2.47;1.83;;;19.50;53.90;;;;;;5015695;28;20520;-83
2022/09/03 02:40:53;;;;;;;1.67;1.30;;;19.60;53.80;;;;;;5026749;28;20427;-83
2022/09/03 02:43:23;;;;;;;2.13;1.83;;;19.60;53.60;;;;;;5031890;28;20451;-83
2022/09/03 02:45:55;;;;;;;1.47;1.37;;;19.50;53.60;;;;;;5028748;28;20449;-82
2022/09/03 02:48:23;;;;;;;1.63;1.20;;;19.60;53.80;;;;;;5011965;28;20521;-81
2022/09/03 02:50:50;;;;;;;2.33;1.30;;;19.60;53.50;;;;;;5012079;28;20500;-80
2022/09/03 02:53:18;;;;;;;1.50;1.40;;;19.60;53.80;;;;;;5012209;28;20521;-85
2022/09/03 02:55:45;;;;;;;3.20;1.60;;;19.50;53.60;;;;;;5011810;28;20458;-82
2022/09/03 02:58:12;;;;;;;2.50;1.67;;;19.40;53.60;;;;;;5013739;28;20841;-80
2022/09/03 03:00:38;;;;;;;2.10;1.50;;;19.50;53.80;;;;;;5013981;28;20468;-82
2022/09/03 03:03:06;;;;;;;1.60;1.50;;;19.50;53.80;;;;;;5014178;28;20462;-84
2022/09/03 03:05:46;;;;;;;2.03;1.50;;;19.50;53.70;;;;;;5011631;28;20458;-83
2022/09/03 03:08:15;;;;;;;2.30;1.27;;;19.40;53.50;;;;;;5012874;28;20553;-84
2022/09/03 03:10:43;;;;;;;1.67;1.57;;;19.50;53.60;;;;;;5013788;28;21003;-84
2022/09/03 03:13:11;;;;;;;1.93;1.60;;;19.40;53.50;;;;;;5010307;28;20458;-83
2022/09/03 03:15:39;;;;;;;2.50;1.70;;;19.30;53.60;;;;;;4991161;28;20537;-82
2022/09/03 03:18:06;;;;;;;1.80;1.53;;;19.50;53.50;;;;;;5009936;28;21011;-82
2022/09/03 03:20:33;;;;;;;1.90;1.37;;;19.40;53.60;;;;;;5011873;28;20493;-82
2022/09/03 03:23:02;;;;;;;1.50;1.40;;;19.50;53.40;;;;;;5014916;28;20451;-83
2022/09/03 03:25:35;;;;;;;1.67;1.57;;;19.40;53.40;;;;;;5033533;28;20448;-84
2022/09/03 03:28:03;;;;;;;1.30;1.30;;;19.40;53.80;;;;;;5014363;28;20469;-82
2022/09/03 03:30:30;;;;;;;2.50;2.17;;;19.40;53.70;;;;;;5016598;28;20446;-82
2022/09/03 03:33:00;;;;;;;1.40;1.23;;;19.30;54.10;;;;;;5032317;28;20505;-82
2022/09/03 03:35:27;;;;;;;1.43;1.33;;;19.30;53.90;;;;;;5019821;28;20854;-82
2022/09/03 03:37:57;;;;;;;1.20;1.10;;;19.40;53.40;;;;;;5023347;28;20489;-82
2022/09/03 03:40:24;;;;;;;1.47;1.33;;;19.40;53.70;;;;;;5009430;28;20446;-82
2022/09/03 03:42:51;;;;;;;1.73;1.33;;;19.30;53.60;;;;;;5013717;28;20468;-81
2022/09/03 03:45:18;;;;;;;1.50;1.40;;;19.30;53.40;;;;;;5014280;28;20446;-82
2022/09/03 03:47:45;;;;;;;1.60;1.50;;;19.30;53.70;;;;;;5016703;28;20473;-84
2022/09/03 03:50:13;;;;;;;1.63;1.53;;;19.40;53.50;;;;;;5017767;28;20465;-83
2022/09/03 03:52:40;;;;;;;1.40;1.30;;;19.30;53.60;;;;;;5016549;28;20442;-83
2022/09/03 03:55:07;;;;;;;2.23;1.47;;;19.30;53.80;;;;;;5016024;28;20596;-83
2022/09/03 03:57:35;;;;;;;1.63;1.53;;;19.40;54.00;;;;;;5014383;28;20482;-84
2022/09/03 04:00:02;;;;;;;2.00;1.43;;;19.40;53.90;;;;;;5014676;28;20438;-82
2022/09/03 04:02:28;;;;;;;3.10;1.33;;;19.30;54.00;;;;;;5015524;28;20462;-81
2022/09/03 04:04:55;;;;;;;1.50;1.40;;;19.30;54.90;;;;;;5016817;28;20526;-82
2022/09/03 04:07:22;;;;;;;1.63;1.30;;;19.20;54.20;;;;;;5017138;28;20465;-82
2022/09/03 04:09:49;;;;;;;2.23;1.47;;;19.20;54.40;;;;;;5034349;28;20702;-82
2022/09/03 04:12:18;;;;;;;1.27;1.17;;;19.30;54.20;;;;;;5019062;28;20455;-81
2022/09/03 04:14:44;;;;;;;1.70;1.60;;;19.30;53.80;;;;;;5017159;28;20512;-81
2022/09/03 04:17:11;;;;;;;1.70;1.60;;;19.20;54.20;;;;;;5019596;28;20548;-83
2022/09/03 04:19:38;;;;;;;1.83;1.73;;;19.20;54.30;;;;;;5018206;28;20454;-82
2022/09/03 04:22:05;;;;;;;1.77;1.33;;;19.20;54.40;;;;;;5033230;28;20478;-83
2022/09/03 04:24:32;;;;;;;4.13;1.40;;;19.20;54.70;;;;;;5016480;28;20454;-83
2022/09/03 04:26:59;;;;;;;1.97;1.30;;;19.20;54.40;;;;;;5014625;28;20839;-83
2022/09/03 04:29:29;;;;;;;1.57;1.37;;;19.30;54.50;;;;;;5023261;28;22505;-83
2022/09/03 04:34:41;;;;;;;1.57;1.47;;;19.30;54.50;;;;;;5026007;28;20525;-83
2022/09/03 04:37:08;;;;;;;3.03;1.87;;;19.30;54.40;;;;;;5022745;28;20823;-80
2022/09/03 04:39:35;;;;;;;1.60;1.50;;;19.30;54.70;;;;;;5025278;28;20514;-81
2022/09/03 04:42:02;;;;;;;1.53;1.43;;;19.20;54.80;;;;;;5020997;28;20515;-81
2022/09/03 04:44:28;;;;;;;1.90;1.80;;;19.20;54.60;;;;;;5025898;28;20447;-81
2022/09/03 04:46:55;;;;;;;1.93;1.83;;;19.10;55.00;;;;;;5025705;28;20455;-82
2022/09/03 04:49:23;;;;;;;2.53;2.20;;;19.10;54.90;;;;;;5024858;28;20529;-83
2022/09/03 04:51:50;;;;;;;1.60;1.37;;;19.00;55.10;;;;;;5025676;28;20468;-83
2022/09/03 04:54:17;;;;;;;1.50;1.40;;;19.00;55.30;;;;;;5021155;28;20530;-81
2022/09/03 04:56:44;;;;;;;1.47;1.37;;;19.10;55.60;;;;;;5021518;28;20565;-82
2022/09/03 04:59:10;;;;;;;1.40;1.30;;;19.00;55.50;;;;;;5020330;28;20475;-81
2022/09/03 05:01:39;;;;;;;1.30;1.20;;;19.00;55.50;;;;;;5018815;28;20458;-81
2022/09/03 05:04:07;;;;;;;2.27;1.40;;;19.00;55.30;;;;;;5018244;28;20513;-84
2022/09/03 05:06:35;;;;;;;2.90;1.33;;;19.00;55.30;;;;;;5028488;28;20454;-83
2022/09/03 05:09:03;;;;;;;3.10;1.50;;;19.00;55.50;;;;;;5013455;28;21141;-84
2022/09/03 05:11:30;;;;;;;3.07;1.60;;;19.00;55.60;;;;;;5011201;28;20450;-81
2022/09/03 05:13:58;;;;;;;1.57;1.10;;;19.10;55.40;;;;;;5014890;28;20470;-81
2022/09/03 05:16:27;;;;;;;1.37;1.20;;;19.00;55.80;;;;;;5015762;28;20446;-82
2022/09/03 05:18:58;;;;;;;1.47;1.37;;;19.10;55.40;;;;;;5017161;28;20463;-84
2022/09/03 05:21:26;;;;;;;1.80;1.50;;;19.00;55.00;;;;;;5019860;28;20462;-82
2022/09/03 05:23:53;;;;;;;2.60;1.47;;;19.10;55.50;;;;;;5037813;28;20439;-81
2022/09/03 05:26:32;;;;;;;3.80;1.50;;;19.20;55.40;;;;;;5029168;28;20458;-81
2022/09/03 05:29:01;;;;;;;1.73;1.20;;;19.20;55.50;;;;;;5028542;28;20534;-82
2022/09/03 05:31:30;;;;;;;1.60;1.33;;;19.20;55.40;;;;;;5038781;28;20461;-82
2022/09/03 05:34:00;;;;;;;1.47;1.37;;;19.20;55.20;;;;;;5015943;28;20482;-82
2022/09/03 05:36:29;;;;;;;2.20;1.40;;;19.10;55.20;;;;;;5014594;28;20464;-82
2022/09/03 05:38:57;;;;;;;1.20;1.10;;;19.00;55.30;;;;;;5027992;28;20500;-83
2022/09/03 05:41:26;;;;;;;1.30;1.20;;;18.90;55.70;;;;;;5013573;28;20450;-82
2022/09/03 05:43:54;;;;;;;3.43;1.20;;;19.00;55.60;;;;;;5013642;28;20980;-83
2022/09/03 05:46:30;;;;;;;3.00;1.17;;;19.00;55.80;;;;;;5016649;28;20481;-81
2022/09/03 05:49:06;;;;;;;1.30;1.20;;;19.00;55.50;;;;;;5017738;28;20484;-84
2022/09/03 05:51:35;;;;;;;1.40;1.30;;;19.20;55.60;;;;;;5014360;28;20484;-83
2022/09/03 05:54:02;;;;;;;1.93;1.73;;;19.30;55.60;;;;;;5013235;28;20568;-82
2022/09/03 05:56:31;;;;;;;2.83;1.30;;;19.30;55.40;;;;;;5013245;28;20466;-82
2022/09/03 05:59:00;;;;;;;1.20;1.00;;;19.40;55.00;;;;;;5015573;28;20466;-82
2022/09/03 06:01:30;;;;;;;1.47;1.30;;;19.50;54.80;;;;;;5014618;28;20534;-83
2022/09/03 06:04:01;;;;;;;2.60;1.20;;;19.50;54.90;;;;;;5023359;28;20959;-82
2022/09/03 06:06:30;;;;;;;1.53;1.30;;;19.50;55.20;;;;;;5027866;28;20454;-81
2022/09/03 06:09:02;;;;;;;1.23;1.20;;;19.50;54.90;;;;;;5030478;28;20458;-83
2022/09/03 06:11:31;;;;;;;1.50;1.40;;;19.50;55.10;;;;;;5030075;28;20493;-81
2022/09/03 06:14:00;;;;;;;1.30;1.20;;;19.40;55.00;;;;;;5036286;28;20466;-83
2022/09/03 06:16:28;;;;;;;1.63;1.53;;;19.40;55.20;;;;;;5029775;28;20462;-79
2022/09/03 06:18:56;;;;;;;1.27;1.17;;;19.30;55.50;;;;;;5024502;28;20480;-82
2022/09/03 06:21:23;;;;;;;1.30;1.20;;;19.50;55.70;;;;;;5031348;28;20466;-80
2022/09/03 06:23:51;;;;;;;2.07;1.00;;;19.60;55.00;;;;;;5016078;28;20610;-82
2022/09/03 06:26:19;;;;;;;8.33;1.50;;;19.60;55.20;;;;;;5017432;28;20977;-83
2022/09/03 06:28:49;;;;;;;1.00;1.00;;;19.60;55.20;;;;;;5016452;28;20827;-83
2022/09/03 06:31:18;;;;;;;1.13;1.03;;;19.70;54.80;;;;;;5013963;28;20458;-81
2022/09/03 06:33:48;;;;;;;2.70;1.67;;;19.60;55.10;;;;;;5014957;28;20457;-82
2022/09/03 06:36:17;;;;;;;1.40;1.30;;;19.80;55.30;;;;;;5014926;28;20454;-84
2022/09/03 06:38:50;;;;;;;1.67;1.30;;;19.70;54.90;;;;;;5015751;28;20482;-82
2022/09/03 06:41:25;;;;;;;1.77;1.67;;;19.80;54.90;;;;;;5013320;28;20450;-80
2022/09/03 06:43:57;;;;;;;2.37;1.23;;;19.80;54.90;;;;;;5029550;28;20469;-81
2022/09/03 06:46:24;;;;;;;1.60;1.50;;;19.90;54.90;;;;;;5014193;28;20462;-82
2022/09/03 06:48:52;;;;;;;1.30;1.20;;;19.80;54.80;;;;;;5014636;28;20724;-82
2022/09/03 06:51:24;;;;;;;4.93;1.67;;;19.90;54.70;;;;;;5016972;28;20461;-82
2022/09/03 06:53:53;;;;;;;1.10;1.10;;;19.90;54.60;;;;;;5019616;28;20512;-81
2022/09/03 06:56:25;;;;;;;2.00;1.20;;;19.90;55.00;;;;;;5015249;28;20553;-83
2022/09/03 06:59:02;;;;;;;4.90;1.60;;;20.10;54.70;;;;;;5015336;28;20569;-84
2022/09/03 07:01:31;;;;;;;2.20;1.33;;;20.20;54.10;;;;;;5016257;28;20489;-82
2022/09/03 07:04:02;;;;;;;1.40;1.30;;;20.20;54.40;;;;;;5015682;28;20450;-81
2022/09/03 07:06:32;;;;;;;1.20;1.10;;;20.20;54.20;;;;;;5015092;28;20441;-84
2022/09/03 07:08:59;;;;;;;1.90;1.80;;;20.30;54.20;;;;;;5013394;28;20472;-81
2022/09/03 07:11:32;;;;;;;1.07;1.07;;;20.30;54.30;;;;;;5014752;28;20561;-84
2022/09/03 07:13:59;;;;;;;1.73;1.50;;;20.50;54.60;;;;;;5025042;28;20461;-80
2022/09/03 07:16:29;;;;;;;1.50;1.40;;;20.60;53.90;;;;;;5019076;28;20482;-82
2022/09/03 07:18:56;;;;;;;1.43;1.33;;;21.10;53.30;;;;;;5015921;28;20470;-83
2022/09/03 07:21:28;;;;;;;1.30;1.20;;;21.50;52.70;;;;;;5028881;28;20446;-82
2022/09/03 07:23:56;;;;;;;1.90;1.70;;;22.40;51.40;;;;;;5013481;28;20457;-84
2022/09/03 07:26:26;;;;;;;1.00;1.00;;;23.00;50.30;;;;;;5012514;28;20466;-81
2022/09/03 07:28:53;;;;;;;1.70;1.60;;;23.00;49.50;;;;;;5011482;28;20472;-82
2022/09/03 07:31:24;;;;;;;2.10;1.67;;;22.00;50.50;;;;;;5015452;28;20450;-82
2022/09/03 07:33:54;;;;;;;1.60;1.50;;;21.30;51.60;;;;;;5013886;28;20446;-84
2022/09/03 07:36:23;;;;;;;1.63;1.40;;;21.10;52.70;;;;;;5013532;28;20502;-82
2022/09/03 07:38:57;;;;;;;1.93;1.40;;;20.80;53.60;;;;;;5015495;28;20470;-82
2022/09/03 07:41:25;;;;;;;1.50;1.40;;;20.90;53.90;;;;;;5012496;28;20525;-83
2022/09/03 07:43:54;;;;;;;3.33;1.53;;;21.00;53.80;;;;;;5010842;28;20473;-82
2022/09/03 07:46:22;;;;;;;2.83;1.60;;;21.60;53.50;;;;;;5014815;28;20454;-82
2022/09/03 07:48:54;;;;;;;1.60;1.40;;;21.80;52.80;;;;;;5014155;28;20505;-83
2022/09/03 07:51:25;;;;;;;1.83;1.73;;;22.10;52.10;;;;;;5030409;28;20442;-82
2022/09/03 07:53:56;;;;;;;1.43;1.33;;;22.40;51.50;;;;;;5015693;28;20454;-83
2022/09/03 07:56:24;;;;;;;1.93;1.60;;;22.50;50.80;;;;;;5014198;28;20482;-80
2022/09/03 07:58:51;;;;;;;1.93;1.60;;;22.30;50.60;;;;;;5015548;28;20478;-83
2022/09/03 08:01:20;;;;;;;1.17;1.10;;;22.20;51.20;;;;;;5015528;28;20442;-82
2022/09/03 08:03:52;;;;;;;1.70;1.60;;;22.20;51.30;;;;;;5017753;28;20488;-81
2022/09/03 08:06:21;;;;;;;1.50;1.40;;;22.10;51.40;;;;;;5031389;28;20446;-81
2022/09/03 08:08:55;;;;;;;1.43;1.33;;;22.20;51.30;;;;;;5031052;28;20580;-82
2022/09/03 08:11:27;;;;;;;1.67;1.57;;;23.50;50.20;;;;;;5024192;28;20476;-80
2022/09/03 08:14:05;;;;;;;1.50;1.40;;;23.50;48.90;;;;;;5015727;28;20442;-84
2022/09/03 08:16:37;;;;;;;1.33;1.23;;;23.00;49.50;;;;;;5014991;28;20481;-82
2022/09/03 08:19:04;;;;;;;3.23;1.80;;;22.40;50.90;;;;;;5015858;28;20474;-83
2022/09/03 08:21:32;;;;;;;1.63;1.50;;;22.20;51.60;;;;;;5013548;28;20454;-83
2022/09/03 08:24:01;;;;;;;1.20;1.10;;;22.40;51.50;;;;;;5014007;28;20447;-82
2022/09/03 08:26:33;;;;;;;2.57;1.50;;;22.50;51.50;;;;;;5012130;28;20534;-82
2022/09/03 08:29:00;;;;;;;1.80;1.20;;;22.50;51.50;;;;;;5012297;28;20469;-83
2022/09/03 08:31:28;;;;;;;1.60;1.50;;;22.20;52.10;;;;;;5013328;28;20518;-81
2022/09/03 08:33:57;;;;;;;1.40;1.30;;;22.00;53.20;;;;;;5012286;28;20450;-82
2022/09/03 08:36:29;;;;;;;1.67;1.57;;;21.90;54.10;;;;;;5012663;28;20485;-79
2022/09/03 08:39:02;;;;;;;2.00;1.90;;;22.00;54.60;;;;;;5013726;28;20504;-82
2022/09/03 08:41:37;;;;;;;2.07;1.80;;;21.90;55.00;;;;;;5012180;28;20517;-83
2022/09/03 08:44:27;;;;;;;1.47;1.37;;;21.50;55.50;;;;;;5010710;28;21275;-81
2022/09/03 08:47:11;;;;;;;1.40;1.30;;;21.40;56.70;;;;;;5012383;28;20453;-83
2022/09/03 08:49:45;;;;;;;1.60;1.50;;;21.30;57.30;;;;;;5013698;28;20979;-84
2022/09/03 08:52:25;;;;;;;1.90;1.80;;;21.20;57.50;;;;;;5009687;28;20451;-81
2022/09/03 08:55:16;;;;;;;1.70;1.50;;;21.20;58.10;;;;;;5012462;28;20482;-83
2022/09/03 08:57:47;;;;;;;1.87;1.77;;;20.90;58.30;;;;;;5012068;28;21063;-82
2022/09/03 09:00:16;;;;;;;2.20;2.00;;;20.70;59.30;;;;;;5014292;28;20454;-83
2022/09/03 09:03:00;;;;;;;2.43;2.20;;;20.50;60.00;;;;;;5009302;28;20481;-83
2022/09/03 09:05:46;;;;;;;2.93;2.00;;;20.40;59.80;;;;;;5010315;28;20466;-82
2022/09/03 09:08:26;;;;;;;2.23;2.03;;;20.30;60.30;;;;;;5009235;28;20497;-82
2022/09/03 09:11:07;;;;;;;2.53;1.90;;;20.60;60.00;;;;;;5009073;28;20460;-83
2022/09/03 09:13:48;;;;;;;1.80;1.70;;;20.60;60.20;;;;;;5010222;28;21055;-82
2022/09/03 09:16:26;;;;;;;2.20;2.00;;;20.60;60.20;;;;;;5023730;28;20482;-83
2022/09/03 09:19:20;;;;;;;2.13;1.93;;;20.70;60.80;;;;;;5011202;28;20488;-82
2022/09/03 09:22:04;;;;;;;2.47;2.27;;;20.60;60.90;;;;;;5013561;28;20533;-84
2022/09/03 09:24:44;;;;;;;2.43;2.23;;;20.50;61.90;;;;;;5029336;28;20457;-82
2022/09/03 09:27:16;;;;;;;2.10;2.00;;;20.20;65.80;;;;;;5010552;28;20457;-83
2022/09/03 09:29:47;;;;;;;2.27;1.90;;;20.50;66.80;;;;;;5013557;28;20454;-83
2022/09/03 09:32:16;;;;;;;2.50;2.30;;;20.50;66.90;;;;;;5014819;28;20450;-82
2022/09/03 09:34:43;;;;;;;2.20;2.00;;;20.30;67.90;;;;;;5015318;28;20444;-83
2022/09/03 09:37:16;;;;;;;2.40;2.30;;;20.20;71.60;;;;;;5010162;28;20498;-82
2022/09/03 09:39:58;;;;;;;1.90;1.80;;;20.50;72.60;;;;;;5013519;28;20451;-83
2022/09/03 09:42:26;;;;;;;1.63;1.53;;;20.50;72.20;;;;;;5011897;28;20504;-83
2022/09/03 09:44:53;;;;;;;2.00;1.70;;;20.40;74.10;;;;;;5011906;28;20458;-81
2022/09/03 09:47:34;;;;;;;2.40;2.20;;;20.40;74.40;;;;;;5011485;28;20470;-82
2022/09/03 09:50:02;;;;;;;2.10;1.90;;;20.40;75.90;;;;;;5012874;28;20450;-83
2022/09/03 09:52:30;;;;;;;2.00;1.90;;;20.40;77.90;;;;;;5033001;28;20472;-82
2022/09/03 09:55:19;;;;;;;2.10;2.00;;;20.50;78.60;;;;;;5025347;28;20457;-84
2022/09/03 09:57:47;;;;;;;2.87;2.40;;;20.60;78.40;;;;;;5015385;28;20478;-83
2022/09/03 10:00:16;;;;;;;4.93;2.50;;;20.70;80.40;;;;;;5016555;28;20557;-82
2022/09/03 10:02:53;;;;;;;2.67;2.27;;;21.10;79.20;;;;;;5012304;28;20613;-82
2022/09/03 10:05:24;;;;;;;3.90;2.50;;;21.60;79.60;;;;;;5015803;28;20466;-85
2022/09/03 10:08:06;;;;;;;4.20;2.10;;;22.00;78.10;;;;;;5013315;28;20528;-83
2022/09/03 10:10:38;;;;;;;2.50;2.30;;;22.60;74.30;;;;;;5012796;28;20476;-82
2022/09/03 10:13:17;;;;;;;2.77;1.90;;;23.10;71.50;;;;;;5015239;28;20479;-83
2022/09/03 10:16:07;;;;;;;2.00;1.90;;;24.20;66.50;;;;;;5015831;28;20480;-83
2022/09/03 10:18:49;;;;;;;2.03;1.93;;;24.50;62.90;;;;;;5014922;28;21063;-82
2022/09/03 10:21:25;;;;;;;2.40;2.00;;;24.20;62.10;;;;;;5012266;28;20470;-83
2022/09/03 10:24:19;;;;;;;2.10;2.00;;;23.90;61.60;;;;;;5029337;28;20456;-84
2022/09/03 10:26:46;;;;;;;1.90;1.77;;;23.20;62.70;;;;;;5014259;28;20478;-82
2022/09/03 10:29:20;;;;;;;2.33;2.13;;;22.60;64.80;;;;;;5027227;28;20505;-84
2022/09/03 10:32:10;;;;;;;2.43;2.23;;;22.60;65.90;;;;;;5015459;28;20458;-82
2022/09/03 10:35:07;;;;;;;2.27;1.90;;;22.90;65.60;;;;;;5014685;28;20498;-82
2022/09/03 10:37:49;;;;;;;5.13;2.07;;;23.40;64.80;;;;;;5014689;28;20462;-83
2022/09/03 10:40:42;;;;;;;1.93;1.83;;;24.10;62.00;;;;;;5018873;28;20533;-82
2022/09/03 10:43:50;;;;;;;1.93;1.70;;;24.10;60.00;;;;;;5002844;28;20434;-83
2022/09/03 10:46:34;;;;;;;1.80;1.70;;;25.40;57.60;;;;;;5021798;28;20442;-82
2022/09/03 10:49:13;;;;;;;3.70;1.90;;;26.60;54.70;;;;;;5025170;28;20462;-82
2022/09/03 10:51:56;;;;;;;1.70;1.60;;;26.60;53.20;;;;;;5030557;28;20478;-83
2022/09/03 10:54:58;;;;;;;2.33;1.80;;;27.10;53.00;;;;;;5044454;28;20458;-84
2022/09/03 10:58:02;;;;;;;1.90;1.70;;;27.40;52.10;;;;;;5019290;28;20482;-82
2022/09/03 11:00:32;;;;;;;2.10;2.00;;;26.90;52.30;;;;;;5014759;28;20446;-83
2022/09/03 11:03:06;;;;;;;2.40;1.93;;;26.80;52.30;;;;;;5020503;28;20462;-81
2022/09/03 11:05:38;;;;;;;2.07;1.97;;;26.40;53.00;;;;;;5020689;28;20455;-81
2022/09/03 11:08:12;;;;;;;2.40;2.30;;;26.30;53.70;;;;;;5017077;28;20490;-82
2022/09/03 11:10:45;;;;;;;2.10;1.90;;;26.30;53.80;;;;;;5020382;28;20560;-82
2022/09/03 11:13:34;;;;;;;2.30;2.20;;;26.20;53.90;;;;;;5016397;28;20450;-82
2022/09/03 11:16:08;;;;;;;2.40;2.20;;;26.20;53.90;;;;;;5018319;28;20552;-82
2022/09/03 11:18:51;;;;;;;3.83;2.37;;;27.00;53.20;;;;;;5019707;28;20482;-81
2022/09/03 11:21:23;;;;;;;2.40;2.20;;;27.80;51.50;;;;;;5022510;28;20472;-83
2022/09/03 11:24:12;;;;;;;2.53;1.97;;;28.30;50.60;;;;;;5021957;28;20467;-81
2022/09/03 11:27:08;;;;;;;2.27;2.00;;;28.10;50.50;;;;;;5020461;28;20461;-81
2022/09/03 11:29:46;;;;;;;2.33;2.13;;;28.00;50.50;;;;;;5013799;28;20462;-80
2022/09/03 11:32:20;;;;;;;3.53;2.37;;;28.70;49.70;;;;;;5012697;28;20442;-80
2022/09/03 11:34:50;;;;;;;2.77;2.57;;;27.90;49.90;;;;;;5011554;28;20426;-82
2022/09/03 11:37:22;;;;;;;2.10;2.00;;;28.10;50.70;;;;;;5005526;28;20490;-84
2022/09/03 11:39:57;;;;;;;3.10;1.77;;;28.50;49.20;;;;;;5021204;28;20521;-82
2022/09/03 11:42:35;;;;;;;2.90;2.70;;;28.40;49.10;;;;;;5009575;28;20453;-82
2022/09/03 11:45:28;;;;;;;2.30;2.20;;;27.80;50.60;;;;;;5007845;28;20449;-82
2022/09/03 11:47:56;;;;;;;2.60;2.43;;;28.00;50.30;;;;;;5006851;28;20506;-81
2022/09/03 11:50:25;;;;;;;2.47;2.27;;;28.40;50.00;;;;;;5016796;28;21286;-83
2022/09/03 11:53:20;;;;;;;3.00;2.80;;;28.70;49.00;;;;;;5011954;28;20456;-82
2022/09/03 11:55:46;;;;;;;2.40;2.20;;;28.60;49.90;;;;;;5009290;28;20482;-83
2022/09/03 11:58:32;;;;;;;2.60;2.40;;;28.60;49.10;;;;;;5010571;28;20999;-83
2022/09/03 12:01:02;;;;;;;3.00;2.70;;;28.30;50.50;;;;;;5012050;28;22170;-85
2022/09/03 12:03:44;;;;;;;1.97;1.87;;;28.60;50.00;;;;;;5011519;28;20466;-83
2022/09/03 12:06:23;;;;;;;2.27;2.10;;;28.40;50.20;;;;;;5012034;28;20992;-83
2022/09/03 12:09:50;;;;;;;2.63;2.43;;;29.30;49.20;;;;;;5011968;28;20466;-83
2022/09/03 12:12:28;;;;;;;2.60;2.40;;;29.40;48.60;;;;;;4992034;28;20473;-83
2022/09/03 12:15:23;;;;;;;2.17;2.07;;;29.60;49.00;;;;;;4990893;28;20543;-83
2022/09/03 12:18:17;;;;;;;3.90;2.53;;;29.70;48.80;;;;;;5008333;28;20522;-85
2022/09/03 12:21:04;;;;;;;4.73;2.23;;;29.60;49.20;;;;;;5012528;28;20482;-84
2022/09/03 12:23:44;;;;;;;2.70;2.50;;;30.00;49.20;;;;;;5029009;28;20473;-82
2022/09/03 12:26:18;;;;;;;2.20;2.07;;;30.10;48.40;;;;;;5013211;28;20458;-84
2022/09/03 12:28:52;;;;;;;2.60;2.47;;;30.40;48.00;;;;;;5028275;28;20456;-84
2022/09/03 12:31:28;;;;;;;2.30;2.10;;;30.30;47.60;;;;;;5036477;28;20477;-84
2022/09/03 12:34:11;;;;;;;5.33;2.53;;;29.80;47.90;;;;;;5031934;28;20525;-84
2022/09/03 12:36:50;;;;;;;2.70;2.50;;;29.20;48.60;;;;;;5023620;28;20486;-82
2022/09/03 12:39:19;;;;;;;2.53;2.40;;;28.80;50.00;;;;;;5015577;28;20473;-83
2022/09/03 12:42:13;;;;;;;2.80;2.60;;;29.40;49.00;;;;;;5017074;28;20446;-83
2022/09/03 12:44:42;;;;;;;2.40;2.30;;;28.80;49.10;;;;;;5010972;28;20450;-81
2022/09/03 12:47:16;;;;;;;3.20;2.57;;;28.80;49.90;;;;;;5009149;28;20458;-83
2022/09/03 12:50:10;;;;;;;3.10;2.80;;;29.50;48.80;;;;;;5012375;28;20458;-83
2022/09/03 12:52:48;;;;;;;4.17;2.70;;;29.70;49.00;;;;;;5009727;28;20489;-83
2022/09/03 12:55:42;;;;;;;2.53;2.33;;;30.30;48.00;;;;;;5015784;28;20461;-80
2022/09/03 12:58:45;;;;;;;2.43;2.23;;;30.10;48.00;;;;;;5015387;28;20477;-83
2022/09/03 13:01:19;;;;;;;2.73;2.53;;;30.00;48.90;;;;;;5006427;28;20458;-85
2022/09/03 13:03:56;;;;;;;3.40;3.10;;;30.00;48.70;;;;;;5016685;28;20473;-83
2022/09/03 13:06:31;;;;;;;2.70;2.50;;;29.70;49.00;;;;;;5015227;28;20471;-83
2022/09/03 13:09:01;;;;;;;2.33;2.13;;;29.20;50.00;;;;;;5013525;28;20505;-83
2022/09/03 13:11:36;;;;;;;2.70;2.50;;;29.00;50.00;;;;;;5030661;28;20446;-80
2022/09/03 13:14:05;;;;;;;2.30;2.20;;;29.00;50.20;;;;;;5020235;28;20553;-82
2022/09/03 13:16:47;;;;;;;2.40;2.23;;;29.00;50.60;;;;;;5018997;28;20470;-84
2022/09/03 13:19:33;;;;;;;3.03;2.83;;;29.00;50.90;;;;;;5015263;28;20496;-82
2022/09/03 13:22:24;;;;;;;2.10;2.00;;;28.80;51.60;;;;;;5015682;28;20529;-83
2022/09/03 13:25:08;;;;;;;2.63;2.43;;;29.00;51.20;;;;;;5014072;28;20458;-82
2022/09/03 13:27:53;;;;;;;2.30;2.20;;;29.10;51.10;;;;;;5013226;28;20466;-82
2022/09/03 13:30:22;;;;;;;2.53;2.43;;;29.20;51.10;;;;;;5011759;28;21296;-83
2022/09/03 13:33:15;;;;;;;2.67;2.47;;;28.90;51.30;;;;;;5013271;28;20542;-82